Time;durP1;ratioP1;P1;durP2;ratioP2;P2;SDS_P1;SDS_P2;PMS_P1;PMS_P2;Temp;Humidity;BMP_temperature;BMP_pressure;BME280_temperature;BME280_humidity;BME280_pressure;Samples;Min_cycle;Max_cycle;Signal;HPM_P1;HPM_P2
2022/10/04 00:00:12;;;;;;;8.07;2.45;;;;;;;15.52;63.34;100544.09;4956457;29;20027;-93
2022/10/04 00:02:42;;;;;;;8.68;2.22;;;;;;;15.58;63.36;100550.75;4940079;29;20031;-92
2022/10/04 00:05:15;;;;;;;4.57;1.85;;;;;;;15.59;63.41;100547.88;4959133;29;20035;-91
2022/10/04 00:07:44;;;;;;;;;;;;;;;15.61;63.26;100554.00;4956066;29;20031;-88
2022/10/04 00:10:20;;;;;;;6.93;1.95;;;;;;;15.58;63.28;100567.84;4935199;29;19926;-86
2022/10/04 00:12:58;;;;;;;3.92;2.22;;;;;;;15.34;62.70;100526.13;4952622;29;20030;-86
2022/10/04 00:15:30;;;;;;;9.80;3.25;;;;;;;15.57;62.68;100566.16;4952609;29;20476;-87
2022/10/04 00:18:17;;;;;;;2.72;1.83;;;;;;;15.49;62.58;100549.84;4952206;29;20035;-88
2022/10/04 00:20:54;;;;;;;6.65;1.83;;;;;;;15.66;62.37;100572.47;4952700;29;20054;-93
2022/10/04 00:23:22;;;;;;;11.27;2.03;;;;;;;15.64;62.17;100574.50;4936518;29;20035;-90
2022/10/04 00:25:52;;;;;;;5.20;2.40;;;;;;;15.44;61.99;100552.13;4952587;29;20091;-92
2022/10/04 00:28:20;;;;;;;5.22;1.80;;;;;;;15.58;61.61;100575.13;4953318;29;20466;-88
2022/10/04 00:31:23;;;;;;;8.63;3.22;;;;;;;15.56;62.00;100588.88;4953405;29;20483;-89
2022/10/04 00:33:58;;;;;;;11.25;2.47;;;;;;;15.51;62.01;100587.59;4951527;29;20086;-81
2022/10/04 00:36:23;;;;;;;9.40;2.17;;;;;;;15.34;61.89;100550.53;4933467;29;20084;-86
2022/10/04 00:39:06;;;;;;;13.82;2.55;;;;;;;14.74;61.37;100462.84;4934036;29;20036;-86
2022/10/04 00:41:57;;;;;;;6.38;2.28;;;;;;;15.12;61.41;100531.03;4936006;29;20032;-86
2022/10/04 00:44:26;;;;;;;3.80;1.70;;;;;;;15.29;61.81;100583.50;4933887;29;20436;-87
2022/10/04 00:46:54;;;;;;;4.00;1.88;;;;;;;14.75;62.18;100500.56;4938151;28;20451;-86
2022/10/04 00:49:24;;;;;;;6.25;2.25;;;;;;;15.20;62.31;100566.31;4952522;28;20035;-86
2022/10/04 00:52:11;;;;;;;5.95;2.25;;;;;;;15.19;62.44;100548.38;4959085;28;21064;-85
2022/10/04 00:54:42;;;;;;;5.80;1.85;;;;;;;15.17;62.25;100561.22;4960715;28;20035;-88
2022/10/04 00:57:14;;;;;;;3.35;1.63;;;;;;;14.92;61.85;100517.84;4957485;28;20771;-87
2022/10/04 00:59:51;;;;;;;;;;;;;;;15.23;61.95;100574.13;4940413;28;20106;-85
2022/10/04 01:02:20;;;;;;;5.60;2.25;;;;;;;15.22;61.50;100567.03;4961915;28;20006;-86
2022/10/04 01:04:53;;;;;;;5.85;1.75;;;;;;;15.24;61.35;100581.28;4944547;28;20521;-87
2022/10/04 01:07:27;;;;;;;5.20;2.40;;;;;;;15.14;61.33;100566.94;4962355;28;20030;-84
2022/10/04 01:10:01;;;;;;;5.95;2.28;;;;;;;15.22;61.01;100568.88;4979358;28;20066;-85
2022/10/04 01:12:49;;;;;;;5.05;1.27;;;;;;;15.22;60.89;100580.59;4961833;28;20075;-84
2022/10/04 01:15:20;;;;;;;15.90;2.08;;;;;;;15.26;60.96;100576.53;4980499;28;20062;-85
2022/10/04 01:18:05;;;;;;;9.75;2.53;;;;;;;15.25;61.03;100582.13;4974638;28;20031;-88
2022/10/04 01:20:34;;;;;;;4.68;1.63;;;;;;;15.06;60.65;100555.19;4974656;28;20034;-88
2022/10/04 01:22:59;;;;;;;9.77;2.42;;;;;;;15.06;60.38;100561.47;4956811;28;20105;-88
2022/10/04 01:25:45;;;;;;;6.28;1.90;;;;;;;15.24;60.91;100594.81;4974350;28;20058;-86
2022/10/04 01:28:11;;;;;;;4.88;1.92;;;;;;;15.08;60.89;100564.84;4974345;28;20038;-87
2022/10/04 01:30:36;;;;;;;2.92;1.63;;;;;;;15.06;60.60;100558.75;4956865;28;20031;-87
2022/10/04 01:33:05;;;;;;;5.22;2.17;;;;;;;15.13;61.15;100586.09;4975018;28;20030;-86
2022/10/04 01:35:34;;;;;;;8.40;1.77;;;;;;;15.09;61.30;100569.28;4974114;28;20181;-87
2022/10/04 01:38:01;;;;;;;8.27;2.05;;;;;;;15.19;60.95;100580.91;4956660;28;20030;-86
2022/10/04 01:40:30;;;;;;;10.57;2.38;;;;;;;15.16;60.75;100564.09;4974188;28;20031;-88
2022/10/04 01:43:02;;;;;;;8.35;2.30;;;;;;;15.14;61.07;100577.78;4973479;28;20094;-86
2022/10/04 01:45:38;;;;;;;9.55;1.88;;;;;;;15.19;60.95;100594.44;4974165;28;20077;-86
2022/10/04 01:48:09;;;;;;;10.82;1.98;;;;;;;15.16;61.44;100597.47;4973599;28;20031;-88
2022/10/04 01:51:07;;;;;;;4.35;1.70;;;;;;;15.10;61.29;100595.38;4973949;28;20065;-85
2022/10/04 01:54:02;;;;;;;13.32;2.85;;;;;;;15.10;61.54;100598.09;4913574;29;20130;-88
2022/10/04 01:56:52;;;;;;;13.02;2.55;;;;;;;15.13;61.37;100603.19;4875433;29;20048;-87
2022/10/04 01:59:27;;;;;;;4.72;1.77;;;;;;;15.03;61.43;100580.72;4876352;29;20036;-86
2022/10/04 02:02:04;;;;;;;4.53;2.22;;;;;;;15.00;61.51;100577.47;4859579;29;20456;-86
2022/10/04 02:04:34;;;;;;;9.85;2.05;;;;;;;15.12;61.71;100601.47;4875666;29;20040;-85
2022/10/04 02:07:01;;;;;;;5.78;2.78;;;;;;;15.05;61.89;100599.53;4875277;29;20076;-84
2022/10/04 02:09:37;;;;;;;7.10;2.50;;;;;;;14.94;62.00;100606.03;4876515;29;20480;-86
2022/10/04 02:12:05;;;;;;;21.20;3.03;;;;;;;14.90;62.51;100599.22;4877416;29;20111;-86
2022/10/04 02:14:33;;;;;;;15.85;3.30;;;;;;;14.85;62.64;100598.84;4879842;29;20128;-86
2022/10/04 02:17:01;;;;;;;5.43;2.15;;;;;;;14.33;62.86;100529.22;4881188;29;20173;-87
2022/10/04 02:19:33;;;;;;;6.15;3.05;;;;;;;14.65;63.18;100591.81;4888039;29;20037;-85
2022/10/04 02:22:01;;;;;;;;;;;;;;;14.69;63.58;100609.47;4901615;29;20028;-85
2022/10/04 02:24:26;;;;;;;3.63;2.20;;;;;;;14.48;63.23;100584.53;4901286;29;19924;-87
2022/10/04 02:26:52;;;;;;;25.77;3.13;;;;;;;14.58;63.56;100596.16;4900803;29;20052;-87
2022/10/04 02:29:21;;;;;;;22.48;2.58;;;;;;;14.60;63.75;100599.56;4905718;29;20025;-83
2022/10/04 02:34:34;;;;;;;12.88;2.05;;;;;;;14.64;63.46;100619.91;4998603;28;20053;-84
2022/10/04 02:37:02;;;;;;;5.78;1.90;;;;;;;14.54;63.41;100597.44;4975122;28;20043;-87
2022/10/04 02:39:42;;;;;;;5.13;2.45;;;;;;;14.67;63.42;100638.56;4972863;28;20401;-87
2022/10/04 02:42:34;;;;;;;7.28;1.98;;;;;;;14.71;63.47;100650.75;4955153;28;20069;-86
2022/10/04 02:45:09;;;;;;;6.00;2.05;;;;;;;14.53;63.09;100631.78;4902128;29;20132;-85
2022/10/04 02:47:45;;;;;;;6.80;2.22;;;;;;;14.56;63.44;100642.31;4875716;29;20072;-86
2022/10/04 02:50:27;;;;;;;9.13;4.07;;;;;;;14.57;63.63;100653.97;4875124;29;20060;-87
2022/10/04 02:53:00;;;;;;;5.00;1.80;;;;;;;14.55;63.65;100651.44;4876573;29;20123;-87
2022/10/04 02:55:30;;;;;;;4.88;2.00;;;;;;;14.50;63.66;100642.91;4875744;29;20053;-87
2022/10/04 02:57:57;;;;;;;10.07;2.35;;;;;;;14.55;63.70;100647.88;4875509;29;20485;-87
2022/10/04 03:00:28;;;;;;;14.13;2.80;;;;;;;14.56;63.51;100649.56;4875338;29;20492;-87
2022/10/04 03:03:38;;;;;;;15.85;2.58;;;;;;;14.48;63.89;100649.47;4876184;29;20528;-85
2022/10/04 03:06:10;;;;;;;7.10;2.65;;;;;;;14.16;64.38;100617.38;4875488;29;20080;-87
2022/10/04 03:08:46;;;;;;;8.15;2.55;;;;;;;13.98;64.53;100592.97;4875342;29;20048;-85
2022/10/04 03:11:14;;;;;;;5.20;1.83;;;;;;;14.07;64.62;100619.13;4875657;29;20133;-85
2022/10/04 03:13:45;;;;;;;10.80;3.45;;;;;;;14.22;64.94;100659.22;4877256;29;20040;-84
2022/10/04 03:16:11;;;;;;;5.82;1.70;;;;;;;14.09;64.98;100665.81;4877104;29;20076;-87
2022/10/04 03:18:38;;;;;;;9.48;2.60;;;;;;;13.87;65.23;100630.13;4859144;29;20043;-86
2022/10/04 03:21:10;;;;;;;14.43;3.53;;;;;;;14.03;65.48;100658.28;4879346;29;20584;-87
2022/10/04 03:23:37;;;;;;;11.82;2.30;;;;;;;14.17;65.53;100679.44;4934210;29;20032;-87
2022/10/04 03:26:09;;;;;;;7.00;2.17;;;;;;;14.22;65.21;100683.59;4932672;29;20044;-86
2022/10/04 03:28:35;;;;;;;;;;;;;;;14.11;65.25;100690.00;4933678;29;20131;-84
2022/10/04 03:31:01;;;;;;;11.75;2.92;;;;;;;13.99;65.49;100691.16;4933529;29;19915;-85
2022/10/04 03:33:27;;;;;;;11.00;2.83;;;;;;;13.91;66.14;100686.47;4933196;29;20411;-86
2022/10/04 03:35:56;;;;;;;8.95;2.65;;;;;;;13.90;66.15;100692.91;4934011;29;20534;-87
2022/10/04 03:38:24;;;;;;;10.88;3.30;;;;;;;13.80;66.33;100675.81;4935316;29;20046;-87
2022/10/04 03:40:54;;;;;;;14.00;2.92;;;;;;;13.78;66.64;100675.13;4940921;29;20083;-85
2022/10/04 03:43:23;;;;;;;19.60;3.33;;;;;;;13.62;66.59;100645.97;4942612;29;20035;-88
2022/10/04 03:45:51;;;;;;;37.40;4.97;;;;;;;13.92;66.87;100690.88;4943425;29;20031;-85
2022/10/04 03:48:26;;;;;;;14.68;2.78;;;;;;;13.37;66.39;100597.06;4940614;29;20091;-82
2022/10/04 03:50:52;;;;;;;15.32;2.92;;;;;;;13.92;66.35;100701.69;4949825;29;20175;-81
2022/10/04 03:53:24;;;;;;;19.58;3.75;;;;;;;13.95;66.36;100703.25;4954226;29;20031;-83
2022/10/04 03:55:51;;;;;;;12.25;3.17;;;;;;;13.92;66.32;100703.53;4949611;28;20412;-84
2022/10/04 03:58:18;;;;;;;11.95;3.10;;;;;;;13.65;66.38;100666.44;4933200;29;20403;-84
2022/10/04 04:01:04;;;;;;;10.80;3.55;;;;;;;13.85;66.52;100705.97;4932517;29;20484;-83
2022/10/04 04:03:39;;;;;;;29.27;5.15;;;;;;;13.88;66.46;100710.25;4932327;29;20032;-87
2022/10/04 04:06:13;;;;;;;14.50;2.80;;;;;;;13.79;66.65;100716.53;4914837;29;20430;-83
2022/10/04 04:08:43;;;;;;;538.40;36.45;;;;;;;13.64;66.44;100692.63;4932363;29;20042;-87
2022/10/04 04:11:18;;;;;;;60.97;6.82;;;;;;;13.60;66.33;100701.16;4934376;29;20052;-87
2022/10/04 04:14:21;;;;;;;16.27;3.90;;;;;;;13.80;66.63;100740.69;4932475;29;20028;-81
2022/10/04 04:16:47;;;;;;;22.38;3.42;;;;;;;13.66;66.60;100716.81;4932919;29;20039;-82
2022/10/04 04:19:17;;;;;;;86.45;5.85;;;;;;;13.81;66.85;100742.41;4935155;29;20039;-85
2022/10/04 04:21:43;;;;;;;21.23;3.63;;;;;;;13.49;66.48;100688.63;4933307;29;20036;-83
2022/10/04 04:24:25;;;;;;;15.25;3.70;;;;;;;13.68;66.64;100744.53;4916726;29;20034;-83
2022/10/04 04:26:56;;;;;;;21.80;3.85;;;;;;;13.56;66.51;100742.97;4935880;29;20467;-84
2022/10/04 04:29:43;;;;;;;11.50;3.80;;;;;;;13.50;66.91;100754.34;4904602;29;20043;-93
2022/10/04 04:32:17;;;;;;;22.33;3.92;;;;;;;13.26;66.61;100713.38;4921734;29;20031;-88
2022/10/04 04:34:57;;;;;;;20.30;4.18;;;;;;;13.42;66.57;100744.22;4941755;29;20511;-83
2022/10/04 04:37:23;;;;;;;9.75;2.90;;;;;;;13.34;66.66;100737.81;4938661;29;20031;-83
2022/10/04 04:39:56;;;;;;;14.50;2.95;;;;;;;13.29;66.81;100740.09;4936403;29;20046;-78
2022/10/04 04:42:33;;;;;;;12.48;2.58;;;;;;;13.13;66.76;100724.41;4938361;29;20087;-80
2022/10/04 04:45:13;;;;;;;10.68;2.60;;;;;;;13.07;66.79;100717.69;4941785;28;20031;-80
2022/10/04 04:47:43;;;;;;;14.73;3.05;;;;;;;13.00;67.09;100711.13;4955790;28;20470;-78
2022/10/04 04:50:14;;;;;;;12.38;3.67;;;;;;;13.26;67.35;100759.28;4955298;28;20086;-80
2022/10/04 04:52:43;;;;;;;149.88;9.88;;;;;;;13.18;67.42;100732.94;4955731;28;20031;-81
2022/10/04 04:55:18;;;;;;;22.13;3.15;;;;;;;13.43;67.51;100764.84;4938241;28;20422;-80
2022/10/04 04:57:44;;;;;;;99.57;6.30;;;;;;;13.22;66.79;100720.88;4955144;28;20035;-79
2022/10/04 05:00:17;;;;;;;30.35;4.93;;;;;;;13.55;67.09;100765.56;4956118;28;20028;-79
2022/10/04 05:02:51;;;;;;;55.80;6.40;;;;;;;13.13;67.01;100696.56;4957576;28;20475;-81
2022/10/04 05:05:18;;;;;;;522.97;40.35;;;;;;;13.69;66.82;100775.13;4940131;28;20027;-80
2022/10/04 05:07:44;;;;;;;126.15;11.20;;;;;;;13.48;66.10;100732.03;4938311;28;20093;-82
2022/10/04 05:10:44;;;;;;;220.80;14.90;;;;;;;13.85;65.93;100770.84;4966201;28;20118;-81
2022/10/04 05:13:10;;;;;;;23.00;4.68;;;;;;;13.71;65.67;100754.22;4911827;29;20043;-83
2022/10/04 05:15:40;;;;;;;21.17;4.75;;;;;;;13.91;65.30;100789.22;4912203;29;20090;-81
2022/10/04 05:18:32;;;;;;;27.98;4.43;;;;;;;13.99;65.02;100794.78;4895995;29;20101;-82
2022/10/04 05:21:13;;;;;;;10.10;2.78;;;;;;;13.94;64.54;100780.81;4821726;29;20038;-82
2022/10/04 05:23:39;;;;;;;13.20;3.60;;;;;;;14.04;64.63;100797.91;4808326;29;20053;-78
2022/10/04 05:26:10;;;;;;;21.40;3.50;;;;;;;14.03;63.99;100790.81;4823640;29;20055;-81
2022/10/04 05:28:36;;;;;;;27.73;3.22;;;;;;;13.79;64.05;100776.00;4820736;29;20085;-80
2022/10/04 05:31:18;;;;;;;35.60;3.92;;;;;;;14.09;64.10;100819.13;4819409;29;20506;-82
2022/10/04 05:33:54;;;;;;;13.82;4.93;;;;;;;14.02;64.01;100813.44;4820091;29;20042;-79
2022/10/04 05:36:35;;;;;;;10.85;3.55;;;;;;;13.92;64.27;100790.94;4819112;29;20088;-81
2022/10/04 05:39:13;;;;;;;10.02;2.90;;;;;;;14.15;64.16;100816.72;4819866;29;20050;-81
2022/10/04 05:42:05;;;;;;;15.50;4.10;;;;;;;14.17;64.55;100828.22;4820540;29;20046;-81
2022/10/04 05:44:36;;;;;;;13.35;3.25;;;;;;;14.23;64.20;100837.63;4820263;29;20035;-81
2022/10/04 05:47:05;;;;;;;11.93;4.45;;;;;;;14.36;63.77;100835.50;4820155;29;20042;-79
2022/10/04 05:49:45;;;;;;;26.95;5.40;;;;;;;14.34;63.47;100804.19;4839380;29;20097;-80
2022/10/04 05:52:24;;;;;;;16.27;3.30;;;;;;;14.59;63.01;100833.31;4856746;29;20049;-81
2022/10/04 05:55:31;;;;;;;18.05;3.50;;;;;;;14.67;62.94;100838.88;4856759;29;20034;-80
2022/10/04 05:58:20;;;;;;;8.43;3.85;;;;;;;14.77;62.61;100833.44;4912204;28;20135;-81
2022/10/04 06:00:49;;;;;;;16.10;3.40;;;;;;;14.80;62.51;100839.41;4954958;28;20031;-85
2022/10/04 06:03:14;;;;;;;16.27;3.30;;;;;;;14.91;62.45;100846.50;4954573;28;20063;-88
2022/10/04 06:06:23;;;;;;;9.35;3.15;;;;;;;14.88;62.20;100828.72;4954385;28;20521;-87
2022/10/04 06:09:12;;;;;;;20.38;3.30;;;;;;;15.03;62.27;100846.19;4862715;29;20037;-89
2022/10/04 06:12:03;;;;;;;13.27;3.90;;;;;;;15.07;62.33;100858.44;4872075;29;20208;-83
2022/10/04 06:14:47;;;;;;;9.52;3.80;;;;;;;15.11;62.28;100865.25;4864658;29;20092;-89
2022/10/04 06:17:42;;;;;;;10.77;3.33;;;;;;;15.16;62.01;100857.56;4861553;29;20029;-84
2022/10/04 06:20:32;;;;;;;27.05;4.03;;;;;;;15.24;61.61;100871.19;4880315;29;20041;-88
2022/10/04 06:23:04;;;;;;;32.15;4.57;;;;;;;15.14;61.84;100864.97;4879935;29;20413;-85
2022/10/04 06:25:41;;;;;;;18.67;4.32;;;;;;;15.01;62.13;100836.50;4883636;29;20045;-88
2022/10/04 06:28:13;;;;;;;16.40;4.25;;;;;;;15.30;61.98;100880.59;4871723;29;20100;-88
2022/10/04 06:31:17;;;;;;;22.33;4.38;;;;;;;15.34;61.53;100867.59;4880102;29;20048;-85
2022/10/04 06:33:45;;;;;;;25.08;6.53;;;;;;;15.45;61.41;100879.09;4895578;29;20045;-82
2022/10/04 06:36:36;;;;;;;52.88;13.15;;;;;;;15.50;61.67;100878.69;4890609;29;20041;-90
2022/10/04 06:39:37;;;;;;;22.73;9.73;;;;;;;15.62;61.22;100875.63;4880931;28;20047;-89
2022/10/04 06:42:24;;;;;;;25.67;4.10;;;;;;;15.68;60.06;100876.88;4893095;29;20044;-86
2022/10/04 06:45:05;;;;;;;27.45;7.13;;;;;;;15.72;60.03;100880.97;4893396;29;20064;-85
2022/10/04 06:47:51;;;;;;;22.35;6.22;;;;;;;15.75;59.33;100876.09;4878860;29;20041;-86
2022/10/04 06:50:33;;;;;;;25.63;6.80;;;;;;;15.65;59.34;100842.78;4893410;29;20729;-84
2022/10/04 06:53:15;;;;;;;21.27;4.25;;;;;;;16.03;58.92;100895.06;4895088;29;20069;-83
2022/10/04 06:55:55;;;;;;;16.55;6.10;;;;;;;16.07;58.96;100897.31;4892944;29;20471;-83
2022/10/04 06:58:31;;;;;;;9.25;4.38;;;;;;;16.08;59.16;100898.19;4895843;29;20033;-82
2022/10/04 07:01:28;;;;;;;23.05;5.35;;;;;;;15.97;58.71;100877.53;4901884;29;20104;-83
2022/10/04 07:04:02;;;;;;;32.47;4.40;;;;;;;16.18;56.39;100898.94;4898892;29;20029;-83
2022/10/04 07:07:22;;;;;;;14.20;3.20;;;;;;;16.06;56.92;100876.63;4887259;29;20180;-83
2022/10/04 07:09:43;;;;;;;8.13;3.10;;;;;;;16.15;56.75;100878.41;4873967;29;20069;-83
2022/10/04 07:12:15;;;;;;;8.02;2.40;;;;;;;16.24;55.93;100891.03;4874001;29;20064;-84
2022/10/04 07:14:47;;;;;;;22.15;3.13;;;;;;;16.00;55.52;100839.25;4858497;29;20479;-82
2022/10/04 07:17:19;;;;;;;21.95;2.63;;;;;;;16.22;55.81;100868.66;4874000;29;20504;-84
2022/10/04 07:19:48;;;;;;;9.93;2.00;;;;;;;16.50;54.51;100896.56;4924557;29;20065;-84
2022/10/04 07:22:49;;;;;;;10.55;2.42;;;;;;;16.54;54.69;100895.28;4933075;29;20042;-83
2022/10/04 07:25:29;;;;;;;12.45;1.70;;;;;;;16.74;54.03;100904.06;4933409;29;20039;-86
2022/10/04 07:31:02;;;;;;;6.10;1.83;;;;;;;16.67;52.71;100875.84;4932621;29;20078;-83
2022/10/04 07:33:32;;;;;;;7.57;1.50;;;;;;;16.88;52.27;100894.53;4932393;29;20541;-85
2022/10/04 07:36:28;;;;;;;6.40;2.08;;;;;;;17.08;52.66;100915.88;4932098;29;20031;-84
2022/10/04 07:38:59;;;;;;;12.73;2.45;;;;;;;17.17;52.64;100920.38;4897970;29;20116;-84
2022/10/04 07:41:34;;;;;;;10.50;3.30;;;;;;;17.08;52.13;100882.41;4908238;29;20048;-82
2022/10/04 07:44:14;;;;;;;6.25;1.92;;;;;;;17.35;51.30;100918.44;4915675;29;20056;-86
2022/10/04 07:46:54;;;;;;;70.63;5.32;;;;;;;17.00;51.36;100877.75;4901562;29;20033;-85
2022/10/04 07:49:22;;;;;;;6.85;1.65;;;;;;;17.42;51.28;100914.06;4910883;29;20052;-87
2022/10/04 07:52:11;;;;;;;6.45;2.33;;;;;;;17.53;50.97;100920.22;4913616;29;20040;-84
2022/10/04 07:54:43;;;;;;;13.07;2.03;;;;;;;17.61;51.15;100918.44;4912711;29;20069;-83
2022/10/04 07:57:27;;;;;;;7.60;1.63;;;;;;;17.68;50.52;100915.91;4901552;29;20113;-83
2022/10/04 08:00:04;;;;;;;8.93;2.63;;;;;;;17.36;50.05;100841.28;4893579;29;20173;-86
2022/10/04 08:03:07;;;;;;;5.32;2.47;;;;;;;17.92;49.95;100922.28;4880732;29;20424;-86
2022/10/04 08:05:37;;;;;;;14.18;2.38;;;;;;;17.95;49.44;100896.59;4896570;29;20085;-83
2022/10/04 08:08:28;;;;;;;7.68;2.42;;;;;;;18.14;49.08;100926.28;4841342;29;20542;-82
2022/10/04 08:11:18;;;;;;;6.60;1.80;;;;;;;18.18;49.66;100916.75;4851877;29;20061;-86
2022/10/04 08:14:03;;;;;;;3.35;1.70;;;;;;;18.24;49.38;100921.53;4839395;29;20094;-85
2022/10/04 08:16:42;;;;;;;85.85;6.00;;;;;;;18.45;48.39;100921.06;4903106;29;20051;-82
2022/10/04 08:19:26;;;;;;;22.50;3.70;;;;;;;18.57;47.74;100929.78;4914629;29;20129;-84
2022/10/04 08:22:21;;;;;;;30.13;2.15;;;;;;;18.64;47.12;100922.63;4937207;29;20027;-83
2022/10/04 08:25:34;;;;;;;22.45;2.63;;;;;;;18.79;46.86;100926.38;4925417;29;20041;-85
2022/10/04 08:31:28;;;;;;;18.67;1.95;;;;;;;18.99;46.15;100933.19;4897465;29;20072;-84
2022/10/04 08:34:27;;;;;;;22.10;3.42;;;;;;;19.14;46.22;100933.34;4880212;29;20048;-85
2022/10/04 08:37:11;;;;;;;272.00;14.35;;;;;;;19.27;45.05;100942.69;4881253;29;20037;-85
2022/10/04 08:40:12;;;;;;;49.67;4.95;;;;;;;19.36;44.85;100940.78;4913599;29;20096;-85
2022/10/04 08:43:07;;;;;;;59.08;4.68;;;;;;;19.33;44.40;100920.19;4895518;29;20095;-85
2022/10/04 08:45:55;;;;;;;7.50;1.73;;;;;;;19.62;44.31;100937.88;4838865;29;20407;-85
2022/10/04 08:48:45;;;;;;;10.63;1.75;;;;;;;19.72;44.04;100944.00;4839736;29;20118;-84
2022/10/04 08:51:32;;;;;;;3.50;1.45;;;;;;;19.88;43.45;100950.22;4839205;29;20058;-84
2022/10/04 08:54:26;;;;;;;11.23;1.92;;;;;;;19.94;43.76;100956.84;4839113;29;20033;-90
2022/10/04 08:57:10;;;;;;;7.88;1.40;;;;;;;20.03;44.04;100955.78;4844038;29;20068;-82
2022/10/04 09:00:00;;;;;;;2.65;1.75;;;;;;;20.08;43.13;100956.09;4884784;29;20139;-80
2022/10/04 09:41:18;;;;;;;11.40;2.65;;;;;;;20.35;44.95;100971.19;5150196;27;20403;-76
2022/10/04 09:44:05;;;;;;;11.52;2.08;;;;;;;20.46;45.70;100988.00;5065849;28;20419;-80
2022/10/04 09:46:58;;;;;;;18.70;2.50;;;;;;;19.91;47.22;100981.75;5066107;28;20044;-80
2022/10/04 09:49:53;;;;;;;13.98;2.60;;;;;;;19.86;47.53;100962.34;5032898;28;20550;-78
2022/10/04 09:52:33;;;;;;;25.63;3.13;;;;;;;19.88;47.40;100947.47;5066317;28;20107;-80
2022/10/04 09:55:17;;;;;;;4.68;2.00;;;;;;;20.28;46.39;100990.16;5065856;28;20044;-80
2022/10/04 09:57:54;;;;;;;12.35;1.95;;;;;;;20.37;46.19;100986.34;5065584;28;20033;-81
2022/10/04 10:00:32;;;;;;;131.20;9.85;;;;;;;20.19;45.74;100944.78;5065889;28;20123;-78
2022/10/04 10:03:42;;;;;;;160.02;9.50;;;;;;;20.30;45.05;100995.47;5066026;28;20446;-81
2022/10/04 10:06:13;;;;;;;1518.28;137.95;;;;;;;20.32;45.17;100994.25;4969940;28;20560;-80
2022/10/04 10:08:55;;;;;;;72.68;3.95;;;;;;;20.13;44.43;100967.34;4986178;28;20468;-78
2022/10/04 10:14:55;;;;;;;87.68;5.95;;;;;;;20.00;45.30;101000.66;4986795;28;20187;-80
2022/10/04 10:17:39;;;;;;;19.83;2.50;;;;;;;20.02;45.26;101000.50;4985472;28;20150;-82
2022/10/04 10:21:08;;;;;;;85.05;5.32;;;;;;;19.94;45.95;101000.53;5006566;28;20068;-84
2022/10/04 10:23:56;;;;;;;25.95;2.97;;;;;;;19.87;45.73;100975.84;4986640;28;20122;-87
2022/10/04 10:26:40;;;;;;;363.92;24.60;;;;;;;20.01;45.39;101007.00;4929669;29;20780;-85
2022/10/04 10:29:36;;;;;;;211.77;15.57;;;;;;;20.00;45.41;101005.28;4910588;29;20036;-92
2022/10/04 10:32:21;;;;;;;852.45;70.05;;;;;;;19.89;45.26;101005.66;4909830;29;20158;-88
2022/10/04 10:34:57;;;;;;;544.88;36.75;;;;;;;20.00;45.37;101010.75;4889916;29;20046;-83
2022/10/04 10:37:39;;;;;;;570.33;36.70;;;;;;;19.92;45.21;101008.91;4890824;29;20053;-88
2022/10/04 10:40:11;;;;;;;504.52;34.25;;;;;;;20.03;44.67;101021.31;4886452;29;20060;-86
2022/10/04 10:42:55;;;;;;;61.50;5.97;;;;;;;19.95;44.42;101013.16;4877573;29;20484;-83
2022/10/04 10:45:39;;;;;;;915.33;70.43;;;;;;;19.75;44.44;101003.69;4883383;29;20061;-84
2022/10/04 10:48:23;;;;;;;638.08;52.28;;;;;;;19.67;44.93;101011.88;4890065;29;20040;-86
2022/10/04 10:51:29;;;;;;;124.03;8.63;;;;;;;19.57;45.01;101008.50;4886946;29;20040;-86
2022/10/04 10:54:24;;;;;;;35.00;3.15;;;;;;;19.71;45.16;101010.50;4902121;29;20028;-80
2022/10/04 10:57:04;;;;;;;14.65;2.35;;;;;;;19.68;45.15;101011.72;4902222;29;20072;-82
2022/10/04 10:59:51;;;;;;;14.68;2.90;;;;;;;19.62;45.36;101008.81;4963159;28;20619;-89
2022/10/04 11:02:19;;;;;;;13.85;2.30;;;;;;;19.59;45.63;101011.91;4973775;28;20434;-86
2022/10/04 11:04:54;;;;;;;9.45;2.45;;;;;;;19.41;45.73;100982.94;5031506;28;20068;-83
2022/10/04 11:07:42;;;;;;;125.80;7.25;;;;;;;19.51;45.79;101008.16;5030039;28;20056;-84
2022/10/04 11:10:26;;;;;;;29.85;4.45;;;;;;;19.72;45.48;101017.69;5030728;28;20041;-81
2022/10/04 11:13:20;;;;;;;21.17;3.13;;;;;;;19.76;44.83;101014.41;5103191;28;20050;-80
2022/10/04 11:15:56;;;;;;;57.53;4.13;;;;;;;19.61;45.21;101020.75;5113808;28;20027;-86
2022/10/04 11:18:33;;;;;;;37.90;3.75;;;;;;;19.44;45.59;100988.06;5126497;27;20129;-82
2022/10/04 11:21:17;;;;;;;6.95;1.60;;;;;;;19.68;45.34;101016.31;5111685;28;20042;-81
2022/10/04 11:24:05;;;;;;;11.30;1.80;;;;;;;19.63;44.95;101003.16;5112129;28;20076;-80
2022/10/04 11:26:58;;;;;;;15.07;1.65;;;;;;;19.85;44.74;101017.97;5111146;28;20024;-79
2022/10/04 11:29:23;;;;;;;38.65;4.32;;;;;;;19.84;44.99;101022.59;5112763;28;20338;-82
2022/10/04 11:32:01;;;;;;;8.65;1.70;;;;;;;19.91;44.42;101022.72;5112755;28;20107;-83
2022/10/04 11:35:04;;;;;;;23.98;2.53;;;;;;;19.87;44.75;101021.38;5112303;28;20023;-80
2022/10/04 11:37:47;;;;;;;8.20;2.00;;;;;;;19.87;45.39;101026.84;5112312;28;20489;-80
2022/10/04 11:40:25;;;;;;;54.75;3.20;;;;;;;20.01;44.74;101020.66;5118363;28;20214;-83
2022/10/04 11:43:18;;;;;;;14.20;2.67;;;;;;;19.82;44.15;100980.09;5112818;28;20035;-81
2022/10/04 11:46:03;;;;;;;56.42;3.08;;;;;;;20.03;44.27;101024.03;5112136;28;20034;-81
2022/10/04 11:48:37;;;;;;;29.77;3.00;;;;;;;20.17;44.16;101033.38;5111626;28;20567;-80
2022/10/04 11:51:17;;;;;;;30.02;3.05;;;;;;;20.23;44.03;101022.59;5110608;28;20061;-83
2022/10/04 11:54:11;;;;;;;23.10;3.13;;;;;;;20.24;44.10;101018.88;5111981;28;20034;-80
2022/10/04 11:56:59;;;;;;;20.48;2.67;;;;;;;20.39;44.31;101028.03;5113553;28;20395;-89
2022/10/04 11:59:40;;;;;;;6.47;1.58;;;;;;;20.41;43.98;101003.25;5112043;28;20055;-78
2022/10/04 12:02:15;;;;;;;20.02;2.85;;;;;;;20.63;43.78;101016.97;5116564;28;20088;-89
2022/10/04 12:05:10;;;;;;;6.90;2.00;;;;;;;20.80;42.98;101035.97;5126799;28;20019;-85
2022/10/04 12:08:01;;;;;;;192.23;12.77;;;;;;;20.85;42.66;101036.31;5130485;28;20023;-82
2022/10/04 12:10:36;;;;;;;22.75;3.40;;;;;;;20.79;42.79;101039.75;5119655;28;20059;-79
2022/10/04 12:13:33;;;;;;;34.90;4.40;;;;;;;20.84;42.83;101031.84;5130380;28;20046;-84
2022/10/04 12:16:04;;;;;;;23.25;2.83;;;;;;;20.97;42.73;101026.63;5136205;28;20046;-81
2022/10/04 12:18:57;;;;;;;8.63;2.58;;;;;;;21.18;42.58;101029.59;5153292;27;20023;-82
2022/10/04 12:22:04;;;;;;;37.25;3.88;;;;;;;21.15;42.39;101003.44;5132188;27;20031;-82
2022/10/04 12:24:48;;;;;;;22.67;3.03;;;;;;;21.43;42.11;101033.81;5131870;27;20027;-81
2022/10/04 12:27:34;;;;;;;12.82;2.33;;;;;;;21.39;42.18;101035.22;5131788;27;20023;-82
2022/10/04 12:30:40;;;;;;;14.10;2.58;;;;;;;21.64;41.96;101028.47;5131719;27;20035;-82
2022/10/04 12:33:20;;;;;;;13.05;4.32;;;;;;;21.86;39.77;101028.59;5010958;28;20065;-79
2022/10/04 12:36:01;;;;;;;7.72;2.22;;;;;;;21.72;39.69;101022.03;5028008;28;20045;-81
2022/10/04 12:38:57;;;;;;;31.13;3.42;;;;;;;21.96;39.80;101045.59;5027276;28;20045;-81
2022/10/04 12:41:56;;;;;;;19.88;2.53;;;;;;;21.83;38.90;101002.44;4969278;28;20043;-80
2022/10/04 12:44:40;;;;;;;15.20;2.75;;;;;;;22.02;38.38;101053.06;4968878;28;20043;-79
2022/10/04 12:47:24;;;;;;;11.63;3.95;;;;;;;21.89;38.19;101039.19;4968961;28;20646;-78
2022/10/04 12:50:21;;;;;;;56.78;4.25;;;;;;;21.56;38.39;101012.09;4969250;28;20126;-83
2022/10/04 12:53:31;;;;;;;10.10;2.72;;;;;;;21.40;40.41;101050.59;4969345;28;20042;-80
2022/10/04 12:56:20;;;;;;;15.82;2.83;;;;;;;21.24;40.93;101045.25;4949641;29;20050;-81
2022/10/04 12:59:04;;;;;;;7.05;1.40;;;;;;;20.95;40.85;101053.31;4949225;29;20682;-80
2022/10/04 13:01:35;;;;;;;66.07;4.20;;;;;;;20.93;41.27;101061.69;4949447;29;20525;-82
2022/10/04 13:04:34;;;;;;;22.30;4.25;;;;;;;20.64;41.92;101021.38;4949141;28;20091;-81
2022/10/04 13:07:50;;;;;;;41.22;4.38;;;;;;;20.87;42.89;101056.09;4949736;29;20054;-83